Eiwa Maru — JG5742 — position and weather

sailwx.info

Track history (hours):
 
Tides and Currents Weather Stations Pressure Air Temp Water Temp Dewpoint Dewpoint Depression Visibility Wind Speed Wind Dir Waves Ship Positions

Eiwa Maru

Last reported at 2017-Feb-24 12:07 UTC. Time now 2017-Feb-24 17:26 UTC.
Position N 34°51' E 139°48'.

Length 80 m; draft 4 m.

Type: Ship (hazmat cat A). MMSI: 431101045.

Date/timePositionNaut miles runAvg speedWind from/ knotsBaromVisibWave heightAir tempDewpointWater temp
2017-Feb-24 12:07N 34°51' E 139°48'712.0
2017-Feb-24 11:33N 34°51' E 139°40'23310.1
2017-Feb-23 12:31N 34°06' E 135°03'4 3.9
2017-Feb-23 11:33N 34°08' E 135°07'0 0.0
2017-Feb-23 10:32N 34°08' E 135°07'0 0.0
2017-Feb-23 09:33N 34°08' E 135°07'0 0.0
2017-Feb-23 08:32N 34°08' E 135°07'0 0.1
2017-Feb-23 07:33N 34°08' E 135°07'0 0.0
2017-Feb-23 06:33N 34°08' E 135°07'0 0.0
2017-Feb-23 05:33N 34°08' E 135°07'0 0.0
2017-Feb-23 04:32N 34°08' E 135°07'0 0.0
2017-Feb-23 03:30N 34°08' E 135°07'0 0.0
2017-Feb-23 02:33N 34°08' E 135°07'0 0.0
2017-Feb-23 01:33N 34°08' E 135°07'0 0.0
2017-Feb-23 00:32N 34°08' E 135°07'0 0.0
2017-Feb-22 23:33N 34°08' E 135°07'0 0.0
2017-Feb-22 22:33N 34°08' E 135°07'0 0.1
2017-Feb-22 21:33N 34°08' E 135°07'0 0.0
2017-Feb-22 20:34N 34°08' E 135°07'0 0.0
2017-Feb-22 19:34N 34°08' E 135°07'0 0.0
2017-Feb-22 18:33N 34°08' E 135°07'0 0.1
2017-Feb-22 17:33N 34°08' E 135°07'0 0.1
2017-Feb-22 16:33N 34°08' E 135°07'0 0.0
2017-Feb-22 15:34N 34°08' E 135°07'0 0.1
2017-Feb-22 14:34N 34°08' E 135°07'0 0.0
2017-Feb-22 13:34N 34°08' E 135°07'0 0.0
2017-Feb-22 12:33N 34°08' E 135°07'0 0.1
2017-Feb-22 11:34N 34°08' E 135°07'0 0.0
2017-Feb-22 10:34N 34°08' E 135°07'0 0.1
2017-Feb-22 09:34N 34°08' E 135°07'0 0.0
2017-Feb-22 08:34N 34°08' E 135°07'0 0.0
2017-Feb-22 07:33N 34°08' E 135°07'0 0.1
2017-Feb-22 06:33N 34°08' E 135°07'0 0.1
2017-Feb-22 05:32N 34°08' E 135°07'0 0.0
2017-Feb-22 04:33N 34°08' E 135°07'0 0.0
2017-Feb-22 03:33N 34°08' E 135°07'1 0.9
2017-Feb-22 02:27N 34°07' E 135°08'1 0.1
2017-Feb-21 21:09N 34°07' E 135°08'1 1.7
2017-Feb-21 20:33N 34°08' E 135°07'0 0.0
2017-Feb-21 19:33N 34°08' E 135°07'0 0.0
2017-Feb-21 18:33N 34°08' E 135°07'0 0.1
2017-Feb-21 17:34N 34°08' E 135°07'2 2.0
2017-Feb-21 16:33N 34°07' E 135°04'  
2017-Feb-17 10:29N 34°05' E 135°03'7 7.3
2017-Feb-17 09:33N 34°10' E 135°08'0 0.0
2017-Feb-17 08:33N 34°10' E 135°08'0 0.0
2017-Feb-17 07:33N 34°10' E 135°08'0 0.0
2017-Feb-17 06:33N 34°10' E 135°08'0 0.0
2017-Feb-17 05:33N 34°10' E 135°08'3 2.6
2017-Feb-17 04:32N 34°07' E 135°08'1 0.1
2017-Feb-16 22:27N 34°07' E 135°08'1 0.5
2017-Feb-16 21:04N 34°08' E 135°07'0 0.0
2017-Feb-16 12:30N 34°08' E 135°07'0 0.0
2017-Feb-16 11:14N 34°08' E 135°07'0 0.1
2017-Feb-16 09:31N 34°07' E 135°07'8 7.9
2017-Feb-16 08:33N 34°08' E 134°58'29 1.3
2017-Feb-15 09:33N 34°36' E 135°06'1212.6
2017-Feb-15 08:33N 34°36' E 135°21'4 4.0
2017-Feb-15 07:32N 34°34' E 135°26'0 0.0
2017-Feb-15 06:33N 34°34' E 135°26'0 0.0
2017-Feb-15 05:33N 34°34' E 135°26'0 0.0
2017-Feb-15 04:33N 34°34' E 135°26'0 0.0
2017-Feb-15 03:33N 34°34' E 135°26'0 0.4
2017-Feb-15 02:33N 34°35' E 135°25'0 0.2
2017-Feb-15 01:33N 34°35' E 135°25'1 0.9
2017-Feb-15 00:33N 34°36' E 135°25'5 4.5
2017-Feb-14 23:33N 34°35' E 135°20'1312.6
2017-Feb-14 22:32N 34°25' E 135°09'1411.7
2017-Feb-14 21:22N 34°14' E 135°00'1012.7
2017-Feb-14 20:33N 34°03' E 135°01'  
Track history (hours):
 
Tides and Currents Weather Stations Pressure Air Temp Water Temp Dewpoint Dewpoint Depression Visibility Wind Speed Wind Dir Waves Ship Positions

Eiwa Maru

Last reported at 2017-Feb-24 12:07 UTC. Time now 2017-Feb-24 17:26 UTC.
Position N 34°51' E 139°48'.

Length 80 m; draft 4 m.

Type: Ship (hazmat cat A). MMSI: 431101045.

Date/timePositionNaut miles runAvg speedWind from/ knotsBaromVisibWave heightAir tempDewpointWater temp
2017-Feb-24 12:07N 34°51' E 139°48'712.0
2017-Feb-24 11:33N 34°51' E 139°40'23310.1
2017-Feb-23 12:31N 34°06' E 135°03'4 3.9
2017-Feb-23 11:33N 34°08' E 135°07'0 0.0
2017-Feb-23 10:32N 34°08' E 135°07'0 0.0
2017-Feb-23 09:33N 34°08' E 135°07'0 0.0
2017-Feb-23 08:32N 34°08' E 135°07'0 0.1
2017-Feb-23 07:33N 34°08' E 135°07'0 0.0
2017-Feb-23 06:33N 34°08' E 135°07'0 0.0
2017-Feb-23 05:33N 34°08' E 135°07'0 0.0
2017-Feb-23 04:32N 34°08' E 135°07'0 0.0
2017-Feb-23 03:30N 34°08' E 135°07'0 0.0
2017-Feb-23 02:33N 34°08' E 135°07'0 0.0
2017-Feb-23 01:33N 34°08' E 135°07'0 0.0
2017-Feb-23 00:32N 34°08' E 135°07'0 0.0
2017-Feb-22 23:33N 34°08' E 135°07'0 0.0
2017-Feb-22 22:33N 34°08' E 135°07'0 0.1
2017-Feb-22 21:33N 34°08' E 135°07'0 0.0
2017-Feb-22 20:34N 34°08' E 135°07'0 0.0
2017-Feb-22 19:34N 34°08' E 135°07'0 0.0
2017-Feb-22 18:33N 34°08' E 135°07'0 0.1
2017-Feb-22 17:33N 34°08' E 135°07'0 0.1
2017-Feb-22 16:33N 34°08' E 135°07'0 0.0
2017-Feb-22 15:34N 34°08' E 135°07'0 0.1
2017-Feb-22 14:34N 34°08' E 135°07'0 0.0
2017-Feb-22 13:34N 34°08' E 135°07'0 0.0
2017-Feb-22 12:33N 34°08' E 135°07'0 0.1
2017-Feb-22 11:34N 34°08' E 135°07'0 0.0
2017-Feb-22 10:34N 34°08' E 135°07'0 0.1
2017-Feb-22 09:34N 34°08' E 135°07'0 0.0
2017-Feb-22 08:34N 34°08' E 135°07'0 0.0
2017-Feb-22 07:33N 34°08' E 135°07'0 0.1
2017-Feb-22 06:33N 34°08' E 135°07'0 0.1
2017-Feb-22 05:32N 34°08' E 135°07'0 0.0
2017-Feb-22 04:33N 34°08' E 135°07'0 0.0
2017-Feb-22 03:33N 34°08' E 135°07'1 0.9
2017-Feb-22 02:27N 34°07' E 135°08'1 0.1
2017-Feb-21 21:09N 34°07' E 135°08'1 1.7
2017-Feb-21 20:33N 34°08' E 135°07'0 0.0
2017-Feb-21 19:33N 34°08' E 135°07'0 0.0
2017-Feb-21 18:33N 34°08' E 135°07'0 0.1
2017-Feb-21 17:34N 34°08' E 135°07'2 2.0
2017-Feb-21 16:33N 34°07' E 135°04'  
2017-Feb-17 10:29N 34°05' E 135°03'7 7.3
2017-Feb-17 09:33N 34°10' E 135°08'0 0.0
2017-Feb-17 08:33N 34°10' E 135°08'0 0.0
2017-Feb-17 07:33N 34°10' E 135°08'0 0.0
2017-Feb-17 06:33N 34°10' E 135°08'0 0.0
2017-Feb-17 05:33N 34°10' E 135°08'3 2.6
2017-Feb-17 04:32N 34°07' E 135°08'1 0.1
2017-Feb-16 22:27N 34°07' E 135°08'1 0.5
2017-Feb-16 21:04N 34°08' E 135°07'0 0.0
2017-Feb-16 12:30N 34°08' E 135°07'0 0.0
2017-Feb-16 11:14N 34°08' E 135°07'0 0.1
2017-Feb-16 09:31N 34°07' E 135°07'8 7.9
2017-Feb-16 08:33N 34°08' E 134°58'29 1.3
2017-Feb-15 09:33N 34°36' E 135°06'1212.6
2017-Feb-15 08:33N 34°36' E 135°21'4 4.0
2017-Feb-15 07:32N 34°34' E 135°26'0 0.0
2017-Feb-15 06:33N 34°34' E 135°26'0 0.0
2017-Feb-15 05:33N 34°34' E 135°26'0 0.0
2017-Feb-15 04:33N 34°34' E 135°26'0 0.0
2017-Feb-15 03:33N 34°34' E 135°26'0 0.4
2017-Feb-15 02:33N 34°35' E 135°25'0 0.2
2017-Feb-15 01:33N 34°35' E 135°25'1 0.9
2017-Feb-15 00:33N 34°36' E 135°25'5 4.5
2017-Feb-14 23:33N 34°35' E 135°20'1312.6
2017-Feb-14 22:32N 34°25' E 135°09'1411.7
2017-Feb-14 21:22N 34°14' E 135°00'1012.7
2017-Feb-14 20:33N 34°03' E 135°01'  

Dump ship's entire track history